PWSweather.com
Personal Weather Stations
Station Observations
EDELWEISS
Edelweiss Mazama, Winthrop, WA 98862

Edelweiss MazamaWinthrop, WA 98862

Lat: 48.55444, Lon: -120.33194

Elevation: 2376

Station Type: Davis Vantage Vue

http://www.methow.us/weather/etown.html

Latest ConditionsUpdated 8:10:01 AM PST Wednesday, Dec 7, 2016
Currently Today's Max Today's Min Today's Average
Temperature 6.5°F-14.2°C 16.0°F-8.9°C 6.4°F-14.2°C 9.5°F-12.5°C
Dew Point 1.1°F-17.2°C 6.0°F-14.4°C 1.0°F-17.2°C 2.9°F-16.2°C
Winds 1.0 mph NE1.6 kmh NE 2.0 mph E3.2 kmh E - 1.2 mph 1.9 kmh
Wind Gusts 2.0 mph3.2 kmh 4.0 mph6.4 kmh - -
Humidity 78% 78% 61% 74%
Pressure 30.69 in1039.3 mb 30.69 in1039.3 mb 30.52 in1033.5 mb -
Hour Temp Dew Point Humidity Winds Wind Gusts Pressure Precip Precip Rate Daily Precip Total
08:10 AM 6.5°F-14.2°C 1.1°F-17.2°C 78% 1.0 mph NE1.6 kmh NE 2.0 mph3.2 kmh 30.69 in1039.3 mb 0.00 in0.0 mm 0.00 in0.0 mm 0.00 in0.0 mm
08:00 AM 6.5°F-14.2°C 1.1°F-17.2°C 78% 1.0 mph NE1.6 kmh NE 2.0 mph3.2 kmh 30.69 in1039.3 mb 0.00 in0.0 mm 0.00 in0.0 mm 0.00 in0.0 mm
07:50 AM 6.4°F-14.2°C 1.0°F-17.2°C 78% 1.0 mph NE1.6 kmh NE 3.0 mph4.8 kmh 30.69 in1039.3 mb 0.00 in0.0 mm 0.00 in0.0 mm 0.00 in0.0 mm
07:40 AM 6.5°F-14.2°C 1.1°F-17.2°C 78% 1.0 mph NE1.6 kmh NE 2.0 mph3.2 kmh 30.68 in1038.9 mb 0.00 in0.0 mm 0.00 in0.0 mm 0.00 in0.0 mm
07:30 AM 6.7°F-14.1°C 1.3°F-17.1°C 78% 1.0 mph NE1.6 kmh NE 2.0 mph3.2 kmh 30.68 in1038.9 mb 0.00 in0.0 mm 0.00 in0.0 mm 0.00 in0.0 mm
07:20 AM 6.7°F-14.1°C 1.3°F-17.1°C 78% 1.0 mph NE1.6 kmh NE 2.0 mph3.2 kmh 30.67 in1038.6 mb 0.00 in0.0 mm 0.00 in0.0 mm 0.00 in0.0 mm
07:10 AM 6.7°F-14.1°C 1.3°F-17.1°C 78% 1.0 mph NE1.6 kmh NE 3.0 mph4.8 kmh 30.67 in1038.6 mb 0.00 in0.0 mm 0.00 in0.0 mm 0.00 in0.0 mm
07:00 AM 6.6°F-14.1°C 1.2°F-17.1°C 78% 1.0 mph NE1.6 kmh NE 3.0 mph4.8 kmh 30.67 in1038.6 mb 0.00 in0.0 mm 0.00 in0.0 mm 0.00 in0.0 mm
06:50 AM 6.9°F-13.9°C 1.5°F-16.9°C 78% 1.0 mph NE1.6 kmh NE 2.0 mph3.2 kmh 30.66 in1038.3 mb 0.00 in0.0 mm 0.00 in0.0 mm 0.00 in0.0 mm
06:40 AM 7.2°F-13.8°C 1.5°F-16.9°C 77% 2.0 mph NE3.2 kmh NE 3.0 mph4.8 kmh 30.66 in1038.3 mb 0.00 in0.0 mm 0.00 in0.0 mm 0.00 in0.0 mm
06:30 AM 7.1°F-13.8°C 1.4°F-17.0°C 77% 1.0 mph NE1.6 kmh NE 2.0 mph3.2 kmh 30.66 in1038.3 mb 0.00 in0.0 mm 0.00 in0.0 mm 0.00 in0.0 mm
06:20 AM 7.0°F-13.9°C 1.3°F-17.1°C 77% 1.0 mph NE1.6 kmh NE 2.0 mph3.2 kmh 30.66 in1038.3 mb 0.00 in0.0 mm 0.00 in0.0 mm 0.00 in0.0 mm
06:10 AM 7.2°F-13.8°C 1.5°F-16.9°C 77% 1.0 mph NE1.6 kmh NE 3.0 mph4.8 kmh 30.65 in1037.9 mb 0.00 in0.0 mm 0.00 in0.0 mm 0.00 in0.0 mm
06:00 AM 7.4°F-13.7°C 1.7°F-16.8°C 77% 2.0 mph NE3.2 kmh NE 4.0 mph6.4 kmh 30.65 in1037.9 mb 0.00 in0.0 mm 0.00 in0.0 mm 0.00 in0.0 mm
05:50 AM 7.6°F-13.6°C 1.6°F-16.9°C 76% 1.0 mph NE1.6 kmh NE 4.0 mph6.4 kmh 30.64 in1037.6 mb 0.00 in0.0 mm 0.00 in0.0 mm 0.00 in0.0 mm
05:40 AM 7.8°F-13.4°C 1.8°F-16.8°C 76% 2.0 mph NE3.2 kmh NE 2.0 mph3.2 kmh 30.64 in1037.6 mb 0.00 in0.0 mm 0.00 in0.0 mm 0.00 in0.0 mm
05:30 AM 7.4°F-13.7°C 1.4°F-17.0°C 76% 1.0 mph NE1.6 kmh NE 3.0 mph4.8 kmh 30.64 in1037.6 mb 0.00 in0.0 mm 0.00 in0.0 mm 0.00 in0.0 mm
05:20 AM 7.6°F-13.6°C 1.9°F-16.7°C 77% 1.0 mph NE1.6 kmh NE 3.0 mph4.8 kmh 30.63 in1037.3 mb 0.00 in0.0 mm 0.00 in0.0 mm 0.00 in0.0 mm
05:10 AM 7.6°F-13.6°C 1.9°F-16.7°C 77% 1.0 mph NE1.6 kmh NE 2.0 mph3.2 kmh 30.63 in1037.3 mb 0.00 in0.0 mm 0.00 in0.0 mm 0.00 in0.0 mm
05:00 AM 8.0°F-13.3°C 2.0°F-16.7°C 76% 1.0 mph NE1.6 kmh NE 2.0 mph3.2 kmh 30.63 in1037.3 mb 0.00 in0.0 mm 0.00 in0.0 mm 0.00 in0.0 mm
04:50 AM 8.3°F-13.2°C 2.0°F-16.7°C 75% 2.0 mph NE3.2 kmh NE 2.0 mph3.2 kmh 30.62 in1036.9 mb 0.00 in0.0 mm 0.00 in0.0 mm 0.00 in0.0 mm
04:40 AM 8.4°F-13.1°C 2.4°F-16.4°C 76% 2.0 mph ENE3.2 kmh ENE 3.0 mph4.8 kmh 30.62 in1036.9 mb 0.00 in0.0 mm 0.00 in0.0 mm 0.00 in0.0 mm
04:30 AM 8.5°F-13.1°C 2.5°F-16.4°C 76% 2.0 mph ENE3.2 kmh ENE 3.0 mph4.8 kmh 30.62 in1036.9 mb 0.00 in0.0 mm 0.00 in0.0 mm 0.00 in0.0 mm
04:20 AM 8.3°F-13.2°C 2.6°F-16.3°C 77% 1.0 mph NE1.6 kmh NE 3.0 mph4.8 kmh 30.62 in1036.9 mb 0.00 in0.0 mm 0.00 in0.0 mm 0.00 in0.0 mm
04:10 AM 8.3°F-13.2°C 2.6°F-16.3°C 77% 1.0 mph NE1.6 kmh NE 2.0 mph3.2 kmh 30.61 in1036.6 mb 0.00 in0.0 mm 0.00 in0.0 mm 0.00 in0.0 mm
04:00 AM 8.6°F-13.0°C 2.9°F-16.2°C 77% 2.0 mph NE3.2 kmh NE 3.0 mph4.8 kmh 30.61 in1036.6 mb 0.00 in0.0 mm 0.00 in0.0 mm 0.00 in0.0 mm
03:50 AM 8.7°F-12.9°C 3.0°F-16.1°C 77% 2.0 mph NE3.2 kmh NE 3.0 mph4.8 kmh 30.61 in1036.6 mb 0.00 in0.0 mm 0.00 in0.0 mm 0.00 in0.0 mm
03:40 AM 8.9°F-12.8°C 2.9°F-16.2°C 76% 1.0 mph NE1.6 kmh NE 3.0 mph4.8 kmh 30.61 in1036.6 mb 0.00 in0.0 mm 0.00 in0.0 mm 0.00 in0.0 mm
03:30 AM 9.0°F-12.8°C 3.0°F-16.1°C 76% 2.0 mph NE3.2 kmh NE 3.0 mph4.8 kmh 30.60 in1036.2 mb 0.00 in0.0 mm 0.00 in0.0 mm 0.00 in0.0 mm
03:20 AM 9.6°F-12.4°C 3.0°F-16.1°C 74% 2.0 mph NE3.2 kmh NE 3.0 mph4.8 kmh 30.60 in1036.2 mb 0.00 in0.0 mm 0.00 in0.0 mm 0.00 in0.0 mm
03:10 AM 10.1°F-12.2°C 3.2°F-16.0°C 73% 2.0 mph NE3.2 kmh NE 4.0 mph6.4 kmh 30.59 in1035.9 mb 0.00 in0.0 mm 0.00 in0.0 mm 0.00 in0.0 mm
03:00 AM 10.3°F-12.1°C 3.4°F-15.9°C 73% 2.0 mph NE3.2 kmh NE 3.0 mph4.8 kmh 30.59 in1035.9 mb 0.00 in0.0 mm 0.00 in0.0 mm 0.00 in0.0 mm
02:50 AM 10.4°F-12.0°C 3.2°F-16.0°C 72% 2.0 mph NE3.2 kmh NE 3.0 mph4.8 kmh 30.59 in1035.9 mb 0.00 in0.0 mm 0.00 in0.0 mm 0.00 in0.0 mm
02:40 AM 10.2°F-12.1°C 3.6°F-15.8°C 74% 2.0 mph NE3.2 kmh NE 3.0 mph4.8 kmh 30.59 in1035.9 mb 0.00 in0.0 mm 0.00 in0.0 mm 0.00 in0.0 mm
02:30 AM 10.1°F-12.2°C 3.5°F-15.8°C 74% 1.0 mph NE1.6 kmh NE 3.0 mph4.8 kmh 30.59 in1035.9 mb 0.00 in0.0 mm 0.00 in0.0 mm 0.00 in0.0 mm
02:20 AM 10.4°F-12.0°C 4.0°F-15.6°C 75% 2.0 mph NE3.2 kmh NE 3.0 mph4.8 kmh 30.58 in1035.6 mb 0.00 in0.0 mm 0.00 in0.0 mm 0.00 in0.0 mm
02:10 AM 10.6°F-11.9°C 3.6°F-15.8°C 73% 1.0 mph NE1.6 kmh NE 2.0 mph3.2 kmh 30.58 in1035.6 mb 0.00 in0.0 mm 0.00 in0.0 mm 0.00 in0.0 mm
02:00 AM 10.9°F-11.7°C 4.2°F-15.4°C 74% 1.0 mph NE1.6 kmh NE 2.0 mph3.2 kmh 30.57 in1035.2 mb 0.00 in0.0 mm 0.00 in0.0 mm 0.00 in0.0 mm
01:50 AM 11.3°F-11.5°C 4.6°F-15.2°C 74% 1.0 mph NE1.6 kmh NE 2.0 mph3.2 kmh 30.57 in1035.2 mb 0.00 in0.0 mm 0.00 in0.0 mm 0.00 in0.0 mm
01:40 AM 11.6°F-11.3°C 4.3°F-15.4°C 72% 1.0 mph NE1.6 kmh NE 3.0 mph4.8 kmh 30.57 in1035.2 mb 0.00 in0.0 mm 0.00 in0.0 mm 0.00 in0.0 mm
01:30 AM 11.8°F-11.2°C 4.5°F-15.3°C 72% Calm Calm 4.0 mph6.4 kmh 30.56 in1034.9 mb 0.00 in0.0 mm 0.00 in0.0 mm 0.00 in0.0 mm
01:20 AM 12.4°F-10.9°C 5.1°F-14.9°C 72% Calm Calm 2.0 mph3.2 kmh 30.56 in1034.9 mb 0.00 in0.0 mm 0.00 in0.0 mm 0.00 in0.0 mm
01:10 AM 12.7°F-10.7°C 5.4°F-14.8°C 72% Calm Calm -- 30.56 in1034.9 mb 0.00 in0.0 mm 0.00 in0.0 mm 0.00 in0.0 mm
01:00 AM 13.2°F-10.4°C 5.9°F-14.5°C 72% Calm Calm -- 30.55 in1034.5 mb 0.00 in0.0 mm 0.00 in0.0 mm 0.00 in0.0 mm
12:50 AM 13.9°F-10.1°C 5.9°F-14.5°C 70% 1.0 mph E1.6 kmh E 3.0 mph4.8 kmh 30.54 in1034.2 mb 0.00 in0.0 mm 0.00 in0.0 mm 0.00 in0.0 mm
12:40 AM 14.2°F-9.9°C 5.2°F-14.9°C 67% Calm Calm 3.0 mph4.8 kmh 30.54 in1034.2 mb 0.00 in0.0 mm 0.00 in0.0 mm 0.00 in0.0 mm
12:30 AM 14.6°F-9.7°C 6.0°F-14.4°C 68% 1.0 mph NE1.6 kmh NE 2.0 mph3.2 kmh 30.53 in1033.9 mb 0.00 in0.0 mm 0.00 in0.0 mm 0.00 in0.0 mm
12:20 AM 15.1°F-9.4°C 4.4°F-15.3°C 62% 2.0 mph E3.2 kmh E 3.0 mph4.8 kmh 30.53 in1033.9 mb 0.00 in0.0 mm 0.00 in0.0 mm 0.00 in0.0 mm
12:10 AM 15.5°F-9.2°C 5.8°F-14.6°C 65% 1.0 mph ENE1.6 kmh ENE 3.0 mph4.8 kmh 30.52 in1033.5 mb 0.00 in0.0 mm 0.00 in0.0 mm 0.00 in0.0 mm
12:00 AM 16.0°F-8.9°C 4.9°F-15.1°C 61% Calm Calm 2.0 mph3.2 kmh 30.52 in1033.5 mb 0.00 in0.0 mm 0.00 in0.0 mm 0.00 in0.0 mm